Time;durP1;ratioP1;P1;durP2;ratioP2;P2;SDS_P1;SDS_P2;PMS_P1;PMS_P2;Temp;Humidity;BMP_temperature;BMP_pressure;BME280_temperature;BME280_humidity;BME280_pressure;Samples;Min_cycle;Max_cycle;Signal;HPM_P1;HPM_P2
2022/01/22 00:01:29;;;;;;;7.57;2.35;;;;;;;4.53;83.12;102898.88;5074492;28;20087;-53
2022/01/22 00:03:59;;;;;;;5.47;1.52;;;;;;;4.49;82.87;102894.47;5074369;28;20061;-53
2022/01/22 00:06:27;;;;;;;6.07;1.40;;;;;;;4.52;82.30;102899.72;5075360;28;20392;-53
2022/01/22 00:08:55;;;;;;;5.55;1.45;;;;;;;4.51;82.32;102905.88;5074075;28;20064;-53
2022/01/22 00:11:28;;;;;;;11.35;1.70;;;;;;;4.53;82.01;102888.34;5075258;28;20052;-53
2022/01/22 00:16:42;;;;;;;4.65;1.20;;;;;;;4.50;82.08;102894.47;5074574;28;20547;-53
2022/01/22 00:19:12;;;;;;;8.05;1.35;;;;;;;4.51;81.54;102888.34;5074351;28;20057;-53
2022/01/22 00:21:40;;;;;;;8.13;1.48;;;;;;;4.50;81.30;102885.72;5074603;28;20056;-53
2022/01/22 00:24:11;;;;;;;2.03;0.90;;;;;;;4.45;81.51;102885.69;5073898;28;20061;-53
2022/01/22 00:26:39;;;;;;;5.53;1.50;;;;;;;4.39;82.36;102883.94;5075115;28;20057;-53
2022/01/22 00:29:08;;;;;;;6.00;1.45;;;;;;;4.41;82.07;102886.59;5075043;28;20063;-53
2022/01/22 00:31:36;;;;;;;5.63;1.30;;;;;;;4.45;82.04;102883.06;5074404;28;20063;-53
2022/01/22 00:34:04;;;;;;;5.70;1.65;;;;;;;4.53;81.56;102875.22;5074336;28;20060;-53
2022/01/22 00:36:34;;;;;;;8.85;1.60;;;;;;;4.54;81.24;102883.09;5073620;28;20496;-53
2022/01/22 00:39:02;;;;;;;4.95;1.50;;;;;;;4.63;80.93;102880.47;5074492;28;20052;-53
2022/01/22 00:41:31;;;;;;;8.93;1.60;;;;;;;4.62;80.90;102880.47;5074120;28;20048;-53
2022/01/22 00:43:59;;;;;;;6.53;1.40;;;;;;;4.61;81.63;102883.97;5074019;28;20062;-53
2022/01/22 00:46:27;;;;;;;4.90;1.02;;;;;;;4.58;81.66;102883.97;5073508;28;20102;-53
2022/01/22 00:48:56;;;;;;;8.68;1.60;;;;;;;4.60;81.30;102882.22;5073756;28;20057;-53
2022/01/22 00:51:24;;;;;;;10.93;1.48;;;;;;;4.69;80.04;102884.88;5073770;28;20057;-53
2022/01/22 00:53:54;;;;;;;6.47;1.40;;;;;;;4.65;79.42;102869.94;5076871;28;20060;-53
2022/01/22 00:56:22;;;;;;;8.65;1.50;;;;;;;4.63;79.16;102871.72;5077982;28;20069;-53
2022/01/22 00:58:50;;;;;;;6.72;1.83;;;;;;;4.57;79.11;102871.69;5078217;28;20475;-53
2022/01/22 01:01:19;;;;;;;7.78;1.52;;;;;;;4.64;79.30;102873.47;5077771;28;20067;-53
2022/01/22 01:03:47;;;;;;;5.13;1.25;;;;;;;4.59;79.12;102867.31;5077860;28;20056;-53
2022/01/22 01:06:16;;;;;;;5.38;1.27;;;;;;;4.56;79.52;102864.69;5077269;28;20511;-53
2022/01/22 01:08:44;;;;;;;8.35;1.10;;;;;;;4.67;79.27;102868.19;5077546;28;20056;-53
2022/01/22 01:11:16;;;;;;;8.32;1.50;;;;;;;4.79;78.27;102857.69;5077814;28;20064;-53
2022/01/22 01:13:48;;;;;;;4.80;1.40;;;;;;;4.73;78.77;102868.19;5077008;28;20063;-53
2022/01/22 01:16:20;;;;;;;;;;;;;;;4.73;79.01;102868.19;5078369;28;20068;-53
2022/01/22 01:32:47;;;;;;;12.57;1.30;;;;;;;4.69;79.59;102845.44;5077916;28;20411;-53
2022/01/22 01:35:16;;;;;;;7.30;1.38;;;;;;;4.69;79.99;102855.94;5077963;28;20064;-53
2022/01/22 01:37:44;;;;;;;5.63;1.27;;;;;;;4.73;80.03;102851.56;5077135;28;20056;-53
2022/01/22 01:40:17;;;;;;;13.10;1.35;;;;;;;4.74;79.83;102851.56;5077023;28;20057;-53
2022/01/22 01:42:51;;;;;;;5.38;1.88;;;;;;;4.75;80.01;102850.66;5077343;28;20056;-53
2022/01/22 01:45:19;;;;;;;6.25;1.23;;;;;;;4.76;79.46;102841.91;5077520;28;20056;-53
2022/01/22 01:47:54;;;;;;;7.47;1.38;;;;;;;4.73;79.07;102848.94;5076912;28;20057;-53
2022/01/22 01:50:22;;;;;;;4.97;1.52;;;;;;;4.70;78.99;102849.78;5076345;28;20064;-53
2022/01/22 01:53:04;;;;;;;4.07;1.20;;;;;;;4.67;79.43;102841.91;5077132;28;20056;-53
2022/01/22 01:55:46;;;;;;;6.60;1.10;;;;;;;4.67;79.76;102847.16;5076277;28;20068;-53
2022/01/22 01:58:15;;;;;;;10.00;1.67;;;;;;;4.67;79.70;102847.16;5076722;28;20052;-53
2022/01/22 02:00:43;;;;;;;6.90;1.30;;;;;;;4.79;79.30;102848.91;5076376;28;20056;-53
2022/01/22 02:03:13;;;;;;;3.78;1.10;;;;;;;4.87;78.28;102849.78;5076308;28;20095;-53
2022/01/22 02:05:42;;;;;;;11.68;1.30;;;;;;;4.76;79.01;102846.31;5075573;28;20102;-53
2022/01/22 02:08:12;;;;;;;6.07;1.40;;;;;;;4.71;79.65;102851.56;5076245;28;20052;-53
2022/01/22 02:10:45;;;;;;;6.85;1.20;;;;;;;4.72;79.35;102845.41;5076169;28;20424;-53
2022/01/22 02:24:21;;;;;;;7.22;1.33;;;;;;;4.78;79.25;102842.78;5037413;28;20163;-53
2022/01/22 02:26:50;;;;;;;7.57;1.48;;;;;;;4.79;79.45;102841.00;5075589;28;20542;-53
2022/01/22 02:29:18;;;;;;;5.43;2.33;;;;;;;4.76;79.80;102843.66;5075979;28;20053;-53
2022/01/22 02:32:00;;;;;;;5.03;1.13;;;;;;;4.72;80.46;102840.13;5076919;28;20064;-53
2022/01/22 02:34:37;;;;;;;7.13;1.45;;;;;;;4.75;81.15;102839.28;5076923;28;20066;-53
2022/01/22 02:37:12;;;;;;;5.00;1.30;;;;;;;4.72;81.13;102840.13;5076433;28;20063;-53
2022/01/22 02:39:45;;;;;;;6.20;1.25;;;;;;;4.66;81.26;102834.91;5076543;28;20091;-53
2022/01/22 02:42:14;;;;;;;5.47;1.23;;;;;;;4.70;81.55;102826.13;5076808;28;20056;-53
2022/01/22 02:44:46;;;;;;;5.07;1.65;;;;;;;4.77;81.11;102833.13;5075225;28;20526;-53
2022/01/22 02:47:15;;;;;;;8.23;1.17;;;;;;;4.75;80.92;102819.09;5075578;28;20059;-53
2022/01/22 02:49:43;;;;;;;5.05;1.40;;;;;;;4.77;80.89;102816.47;5076195;28;20083;-53
2022/01/22 02:52:17;;;;;;;5.80;1.40;;;;;;;4.80;80.65;102814.72;5075685;28;20061;-53
2022/01/22 02:54:46;;;;;;;6.05;1.48;;;;;;;4.81;81.16;102819.13;5076018;28;20131;-53
2022/01/22 02:57:14;;;;;;;17.30;2.15;;;;;;;4.80;80.63;102817.34;5075590;28;20056;-53
2022/01/22 02:59:42;;;;;;;8.15;1.35;;;;;;;4.79;81.09;102820.88;5075401;28;20068;-53
2022/01/22 03:02:13;;;;;;;8.23;1.13;;;;;;;4.80;81.09;102808.59;5075237;28;20056;-53
2022/01/22 03:04:41;;;;;;;3.70;1.13;;;;;;;4.80;81.47;102809.47;5074931;28;20056;-53
2022/01/22 03:07:10;;;;;;;4.85;1.30;;;;;;;4.81;81.33;102808.59;5075432;28;20053;-53
2022/01/22 03:09:42;;;;;;;7.03;1.45;;;;;;;4.82;81.84;102815.63;5075219;28;20052;-53
2022/01/22 03:12:33;;;;;;;;;;;;;;;4.80;81.90;102806.81;5075185;28;20063;-53
2022/01/22 03:18:06;;;;;;;8.90;1.10;;;;;;;4.79;82.54;102799.84;5051947;28;20053;-53
2022/01/22 03:20:43;;;;;;;7.63;1.20;;;;;;;4.78;82.34;102798.06;5052318;28;20072;-53
2022/01/22 03:27:19;;;;;;;11.25;2.10;;;;;;;4.76;82.67;102804.22;5064779;28;20056;-53
2022/01/22 03:28:57;;;;;;;9.75;1.88;;;;;;;4.76;83.12;102798.97;5057429;28;20060;-53
2022/01/22 03:31:25;;;;;;;3.83;1.25;;;;;;;4.73;83.63;102799.84;5074509;28;20063;-53
2022/01/22 03:33:54;;;;;;;5.78;1.02;;;;;;;4.76;82.85;102794.56;5075019;28;20052;-53
2022/01/22 03:36:23;;;;;;;5.15;0.98;;;;;;;4.71;83.24;102796.34;5074305;28;20056;-53
2022/01/22 03:38:51;;;;;;;10.90;1.20;;;;;;;4.71;83.81;102791.09;5074823;28;20052;-53
2022/01/22 03:41:23;;;;;;;4.53;1.02;;;;;;;4.74;83.54;102801.59;5074465;28;20052;-53
2022/01/22 03:43:51;;;;;;;3.40;0.90;;;;;;;4.77;83.73;102800.69;5075020;28;20412;-53
2022/01/22 03:46:20;;;;;;;5.72;1.13;;;;;;;4.80;83.73;102801.56;5074062;28;20056;-53
2022/01/22 03:48:49;;;;;;;2.83;1.17;;;;;;;4.79;83.91;102799.84;5074696;28;20048;-53
2022/01/22 03:51:17;;;;;;;5.63;1.20;;;;;;;4.87;83.97;102804.19;5074299;28;20523;-53
2022/01/22 03:53:46;;;;;;;5.53;1.25;;;;;;;4.86;83.87;102805.97;5075138;28;20057;-53
2022/01/22 03:56:14;;;;;;;4.47;1.40;;;;;;;4.88;83.91;102813.84;5074027;28;20060;-53
2022/01/22 03:58:45;;;;;;;2.83;1.20;;;;;;;4.96;83.74;102809.44;5075518;28;20139;-53
2022/01/22 04:04:00;;;;;;;;;;;;;;;4.96;83.80;102806.78;5066304;28;20482;-53
2022/01/22 04:09:21;;;;;;;8.25;1.40;;;;;;;5.04;82.38;102799.78;5063434;28;20052;-53
2022/01/22 04:11:51;;;;;;;9.07;1.33;;;;;;;5.01;82.92;102799.81;5074116;28;20507;-53
2022/01/22 04:14:25;;;;;;;3.85;1.00;;;;;;;4.98;82.54;102802.44;5073848;28;20048;-53
2022/01/22 04:17:09;;;;;;;4.75;1.08;;;;;;;5.01;82.69;102794.53;5074113;28;20067;-53
2022/01/22 04:25:11;;;;;;;5.40;1.17;;;;;;;4.94;83.63;102798.03;5074177;28;20531;-53
2022/01/22 04:27:39;;;;;;;7.25;1.27;;;;;;;4.94;83.48;102798.03;5074462;28;20059;-53
2022/01/22 04:30:10;;;;;;;9.90;2.00;;;;;;;4.92;83.72;102794.53;5078702;28;20064;-53
2022/01/22 04:32:38;;;;;;;5.97;1.13;;;;;;;4.91;83.56;102798.94;5077853;28;20053;-53
2022/01/22 04:35:07;;;;;;;4.57;1.27;;;;;;;4.94;83.87;102792.78;5077843;28;20061;-53
2022/01/22 04:37:35;;;;;;;5.93;1.52;;;;;;;4.96;83.48;102791.91;5077936;28;20411;-53
2022/01/22 04:40:04;;;;;;;9.57;1.02;;;;;;;4.97;83.75;102784.88;5078050;28;20056;-53
2022/01/22 04:42:35;;;;;;;6.78;1.17;;;;;;;4.98;83.63;102786.66;5077855;28;20057;-53
2022/01/22 04:45:11;;;;;;;4.75;1.58;;;;;;;4.99;83.42;102776.13;5078699;28;20064;-53
2022/01/22 04:47:50;;;;;;;5.95;1.15;;;;;;;5.03;83.75;102780.50;5078971;28;20056;-53
2022/01/22 04:55:50;;;;;;;5.43;1.15;;;;;;;5.01;83.83;102777.00;5078827;28;20059;-53
2022/01/22 04:58:18;;;;;;;4.78;1.20;;;;;;;5.00;83.76;102767.34;5077861;28;20062;-53
2022/01/22 05:00:46;;;;;;;7.60;1.40;;;;;;;4.98;83.91;102768.25;5077841;28;20053;-53
2022/01/22 05:03:17;;;;;;;5.43;1.20;;;;;;;5.00;84.73;102771.72;5078179;28;20094;-53
2022/01/22 05:05:46;;;;;;;8.48;2.80;;;;;;;5.00;84.98;102771.72;5078138;28;20056;-53
2022/01/22 05:08:14;;;;;;;4.45;1.08;;;;;;;4.99;85.33;102770.88;5077365;28;20066;-53
2022/01/22 05:10:42;;;;;;;7.03;1.55;;;;;;;4.99;85.89;102769.97;5077303;28;20052;-53
2022/01/22 05:13:10;;;;;;;3.88;1.88;;;;;;;4.98;86.04;102768.25;5077906;28;20408;-53
2022/01/22 05:15:38;;;;;;;3.67;1.00;;;;;;;4.98;85.85;102762.97;5078653;28;20090;-53
2022/01/22 05:18:08;;;;;;;9.73;1.45;;;;;;;5.01;86.11;102757.72;5077191;28;20052;-53
2022/01/22 05:20:45;;;;;;;4.63;1.30;;;;;;;5.00;86.26;102761.22;5077143;28;20059;-53
2022/01/22 05:23:17;;;;;;;10.48;1.63;;;;;;;5.05;85.55;102756.81;5076851;28;20531;-53
2022/01/22 05:25:51;;;;;;;3.33;1.10;;;;;;;5.00;85.68;102756.81;5077922;28;20060;-53
2022/01/22 05:29:02;;;;;;;3.35;1.08;;;;;;;4.99;85.65;102754.19;5076787;28;20060;-53
2022/01/22 05:31:42;;;;;;;6.55;1.45;;;;;;;4.97;85.91;102750.69;5077231;28;20067;-53
2022/01/22 05:37:04;;;;;;;5.13;1.20;;;;;;;4.94;86.72;102761.22;5078082;28;20061;-53
2022/01/22 05:39:33;;;;;;;10.43;1.48;;;;;;;4.94;86.69;102756.84;5076096;28;20056;-53
2022/01/22 05:42:03;;;;;;;7.88;2.20;;;;;;;4.99;86.52;102772.59;5077897;28;20071;-53
2022/01/22 05:44:32;;;;;;;2.63;1.23;;;;;;;4.97;86.32;102777.00;5076471;28;20129;-53
2022/01/22 05:47:03;;;;;;;3.05;1.52;;;;;;;4.96;86.30;102772.59;5077189;28;20052;-53
2022/01/22 05:49:34;;;;;;;4.05;1.27;;;;;;;4.96;86.26;102775.22;5076398;28;20059;-53
2022/01/22 05:52:07;;;;;;;3.92;1.00;;;;;;;4.95;86.79;102768.25;5076308;28;20064;-53
2022/01/22 05:55:12;;;;;;;6.30;1.45;;;;;;;4.89;87.13;102784.03;5076583;28;20060;-53
2022/01/22 06:00:26;;;;;;;5.95;1.38;;;;;;;4.93;87.13;102785.78;5076423;28;20056;-53
2022/01/22 06:02:54;;;;;;;6.50;2.60;;;;;;;4.93;86.95;102785.78;5076375;28;20063;-53
2022/01/22 06:05:22;;;;;;;8.32;1.42;;;;;;;4.94;87.65;102788.41;5075974;28;20508;-53
2022/01/22 06:07:52;;;;;;;5.20;1.55;;;;;;;4.96;87.46;102785.75;5076743;28;20063;-53
2022/01/22 06:10:27;;;;;;;9.82;1.58;;;;;;;5.02;87.75;102786.63;5076520;28;20052;-53
2022/01/22 06:13:10;;;;;;;9.00;1.70;;;;;;;4.97;87.28;102783.13;5076835;28;20056;-53
2022/01/22 06:15:39;;;;;;;5.18;1.33;;;;;;;4.97;87.33;102782.25;5075933;28;20559;-53
2022/01/22 06:18:07;;;;;;;7.43;1.70;;;;;;;4.98;87.79;102789.28;5076687;28;20067;-53
2022/01/22 06:20:35;;;;;;;10.30;1.50;;;;;;;4.95;87.38;102784.03;5076465;28;20062;-53
2022/01/22 06:23:05;;;;;;;4.10;1.20;;;;;;;4.92;87.55;102779.63;5076014;28;20500;-53
2022/01/22 06:25:33;;;;;;;8.65;1.20;;;;;;;4.98;88.02;102784.88;5077025;28;20056;-53
2022/01/22 06:28:02;;;;;;;6.18;1.33;;;;;;;5.00;87.96;102787.50;5075937;28;20056;-53
2022/01/22 06:30:30;;;;;;;6.18;1.67;;;;;;;5.00;87.45;102787.50;5075838;28;20057;-53
2022/01/22 06:32:58;;;;;;;6.38;1.33;;;;;;;4.95;87.44;102770.88;5076242;28;20053;-53
2022/01/22 06:35:27;;;;;;;9.23;1.63;;;;;;;5.04;86.90;102789.25;5075838;28;20063;-53
2022/01/22 06:37:59;;;;;;;9.05;1.80;;;;;;;5.03;87.40;102787.50;5076287;28;20496;-53
2022/01/22 06:43:28;;;;;;;6.90;1.85;;;;;;;4.99;87.65;102785.75;5013596;28;20020;-53
2022/01/22 06:45:57;;;;;;;12.18;1.63;;;;;;;5.02;87.04;102785.75;5014455;28;20058;-53
2022/01/22 06:48:25;;;;;;;4.97;1.30;;;;;;;4.93;87.53;102773.50;5041693;28;20063;-54
2022/01/22 06:50:54;;;;;;;6.80;1.92;;;;;;;5.08;87.09;102787.47;5075502;28;20064;-53
2022/01/22 06:53:22;;;;;;;10.35;1.70;;;;;;;5.08;87.05;102801.53;5076298;28;20127;-53
2022/01/22 06:55:56;;;;;;;8.35;1.85;;;;;;;5.09;87.61;102791.88;5075089;28;20056;-53
2022/01/22 06:58:24;;;;;;;6.15;1.90;;;;;;;5.09;87.58;102798.00;5076031;28;20059;-53
2022/01/22 07:00:53;;;;;;;8.75;1.58;;;;;;;5.10;87.14;102797.13;5075501;28;20058;-53
2022/01/22 07:03:21;;;;;;;6.70;1.52;;;;;;;5.12;87.48;102802.41;5076312;28;20052;-53
2022/01/22 07:05:50;;;;;;;6.93;1.48;;;;;;;5.13;87.96;102798.91;5075724;28;20064;-53
2022/01/22 07:08:20;;;;;;;6.60;1.52;;;;;;;5.13;87.84;102799.75;5075125;28;20053;-53
2022/01/22 07:10:49;;;;;;;6.32;1.52;;;;;;;5.15;87.83;102800.63;5075079;28;20056;-53
2022/01/22 07:13:18;;;;;;;6.53;1.45;;;;;;;5.13;88.12;102799.75;5075863;28;20065;-53
2022/01/22 07:15:46;;;;;;;5.00;1.52;;;;;;;5.13;88.43;102788.38;5074692;28;20063;-53
2022/01/22 07:18:15;;;;;;;9.38;1.70;;;;;;;5.12;88.64;102798.00;5075334;28;20106;-53
2022/01/22 07:20:44;;;;;;;4.57;1.67;;;;;;;5.13;88.98;102794.50;5075995;28;20056;-53
2022/01/22 07:23:20;;;;;;;8.90;1.80;;;;;;;5.15;88.92;102803.25;5075102;28;20071;-53
2022/01/22 07:25:48;;;;;;;3.72;1.30;;;;;;;5.15;88.48;102790.09;5075979;28;20087;-53
2022/01/22 07:28:18;;;;;;;4.88;1.55;;;;;;;5.18;88.31;102791.88;5074974;28;20057;-53
2022/01/22 07:30:46;;;;;;;11.25;2.15;;;;;;;5.19;88.18;102789.22;5074659;28;20052;-53
2022/01/22 07:33:15;;;;;;;7.13;1.75;;;;;;;5.17;88.47;102790.09;5075734;28;20052;-53
2022/01/22 07:35:43;;;;;;;3.53;1.55;;;;;;;5.17;88.30;102795.34;5075743;28;20052;-53
2022/01/22 07:38:11;;;;;;;8.48;2.33;;;;;;;5.18;89.14;102808.50;5074796;28;20070;-53
2022/01/22 07:40:40;;;;;;;7.32;1.52;;;;;;;5.16;88.47;102806.75;5074810;28;20059;-53
2022/01/22 07:43:08;;;;;;;17.30;2.63;;;;;;;5.16;88.67;102810.28;5074484;28;20063;-53
2022/01/22 07:45:38;;;;;;;6.07;2.00;;;;;;;5.15;89.38;102813.78;5075276;28;20468;-53
2022/01/22 07:48:06;;;;;;;8.80;2.67;;;;;;;5.15;89.41;102821.66;5075280;28;20071;-53
2022/01/22 07:50:36;;;;;;;10.60;4.07;;;;;;;5.16;89.51;102815.53;5074916;28;20056;-53
2022/01/22 07:53:04;;;;;;;6.47;2.65;;;;;;;5.18;89.45;102813.78;5074301;28;20053;-53
2022/01/22 07:55:33;;;;;;;7.32;3.63;;;;;;;5.18;89.56;102819.03;5074346;28;20053;-53
2022/01/22 07:58:01;;;;;;;9.00;3.08;;;;;;;5.19;89.29;102818.16;5074334;28;20065;-53
2022/01/22 08:00:29;;;;;;;10.68;3.60;;;;;;;5.21;89.15;102811.13;5075450;28;20063;-53
2022/01/22 08:02:59;;;;;;;9.35;4.18;;;;;;;5.21;89.17;102816.41;5074001;28;20053;-53
2022/01/22 08:05:27;;;;;;;9.25;4.20;;;;;;;5.20;89.15;102822.53;5073934;28;20558;-53
2022/01/22 08:07:56;;;;;;;16.98;4.57;;;;;;;5.19;89.19;102812.91;5074834;28;20067;-53
2022/01/22 08:10:24;;;;;;;11.63;4.20;;;;;;;5.22;89.29;102819.91;5074578;28;20059;-53
2022/01/22 08:12:53;;;;;;;10.57;3.85;;;;;;;5.25;89.93;102821.66;5075232;28;20452;-54
2022/01/22 08:15:21;;;;;;;10.27;4.07;;;;;;;5.27;90.14;102815.50;5073822;28;20056;-53
2022/01/22 08:17:50;;;;;;;11.80;4.60;;;;;;;5.29;89.88;102808.47;5074024;28;20063;-53
2022/01/22 08:20:21;;;;;;;17.70;4.10;;;;;;;5.32;89.42;102811.09;5074327;28;20057;-53
2022/01/22 08:22:49;;;;;;;8.23;3.13;;;;;;;5.35;89.56;102811.09;5073845;28;20095;-53
2022/01/22 08:25:17;;;;;;;8.68;2.47;;;;;;;5.40;90.13;102808.44;5073830;28;20419;-53
2022/01/22 08:28:53;;;;;;;9.80;2.72;;;;;;;5.52;89.49;102818.06;5074470;28;20053;-53
2022/01/22 08:30:47;;;;;;;12.52;3.60;;;;;;;5.58;88.73;102818.91;5073771;28;20053;-53
2022/01/22 08:35:52;;;;;;;11.18;2.63;;;;;;;5.65;88.84;102824.13;5073922;28;20110;-53
2022/01/22 08:36:20;;;;;;;5.30;1.88;;;;;;;5.71;88.71;102824.09;5073771;28;20523;-54
2022/01/22 08:38:49;;;;;;;5.65;2.00;;;;;;;5.76;88.97;102817.91;5073757;28;20074;-54
2022/01/22 08:41:17;;;;;;;14.65;2.85;;;;;;;5.84;88.64;102820.53;5074081;28;20053;-54
2022/01/22 08:43:45;;;;;;;8.73;2.38;;;;;;;5.89;88.12;102812.59;5073801;28;20059;-54
2022/01/22 08:46:13;;;;;;;9.55;2.25;;;;;;;5.93;87.70;102816.97;5074593;28;20451;-53
2022/01/22 08:48:42;;;;;;;9.90;2.28;;;;;;;5.97;87.58;102815.22;5074440;28;20122;-54
2022/01/22 08:51:10;;;;;;;6.15;2.03;;;;;;;5.99;87.40;102808.19;5073491;28;20057;-54
2022/01/22 08:53:48;;;;;;;10.43;2.05;;;;;;;6.06;87.30;102816.03;5073449;28;20540;-54
2022/01/22 08:56:17;;;;;;;9.35;2.22;;;;;;;6.11;87.42;102813.38;5073547;28;20057;-54
2022/01/22 08:58:46;;;;;;;7.57;2.10;;;;;;;6.16;87.21;102816.84;5073932;28;20057;-54
2022/01/22 09:01:14;;;;;;;8.77;2.55;;;;;;;6.23;87.72;102829.09;5073909;28;20052;-53
2022/01/22 09:03:42;;;;;;;15.07;4.68;;;;;;;6.28;87.30;102832.56;5074402;28;20057;-53
2022/01/22 09:06:11;;;;;;;9.90;2.40;;;;;;;6.35;87.51;102827.25;5073370;28;20056;-53
2022/01/22 09:08:40;;;;;;;4.65;2.17;;;;;;;6.36;86.54;102819.34;5073755;28;20079;-53
2022/01/22 09:11:10;;;;;;;10.10;2.80;;;;;;;6.42;86.78;102834.22;5073898;28;20063;-53
2022/01/22 09:13:38;;;;;;;7.90;2.45;;;;;;;6.43;86.92;102828.09;5074183;28;20056;-53
2022/01/22 09:16:06;;;;;;;8.70;2.13;;;;;;;6.45;86.54;102835.06;5077573;28;20059;-53
2022/01/22 09:18:35;;;;;;;4.97;2.55;;;;;;;6.54;86.75;102834.16;5077455;28;20416;-53
2022/01/22 09:21:04;;;;;;;9.13;2.72;;;;;;;6.58;86.19;102830.59;5077460;28;20411;-53
2022/01/22 09:23:33;;;;;;;4.68;2.30;;;;;;;6.62;85.53;102827.06;5077340;28;20053;-53
2022/01/22 09:26:03;;;;;;;8.88;2.65;;;;;;;6.68;85.74;102832.25;5077541;28;20449;-53
2022/01/22 09:28:35;;;;;;;8.82;2.58;;;;;;;6.73;85.67;102824.31;5077200;28;20060;-53
2022/01/22 09:31:04;;;;;;;9.57;2.78;;;;;;;6.77;85.85;102822.50;5076585;28;20538;-53
2022/01/22 09:33:32;;;;;;;13.60;2.35;;;;;;;6.89;84.31;102825.03;5077206;28;20074;-53
2022/01/22 09:36:00;;;;;;;7.85;2.72;;;;;;;6.88;84.07;102825.94;5077741;28;20056;-53
2022/01/22 09:38:28;;;;;;;9.18;2.90;;;;;;;6.93;84.30;102832.03;5077306;28;20065;-53
2022/01/22 09:40:57;;;;;;;11.10;2.80;;;;;;;6.88;84.00;102836.50;5077857;28;20065;-53
2022/01/22 09:43:25;;;;;;;8.40;2.67;;;;;;;6.94;83.92;102841.69;5077803;28;20088;-53
2022/01/22 09:45:55;;;;;;;11.48;2.38;;;;;;;7.01;83.74;102843.41;5077792;28;20139;-53
2022/01/22 09:48:23;;;;;;;8.38;2.35;;;;;;;7.03;83.30;102841.59;5076770;28;20481;-53
2022/01/22 09:50:51;;;;;;;7.50;2.33;;;;;;;7.06;82.46;102838.94;5076516;28;20059;-53
2022/01/22 09:53:20;;;;;;;7.13;2.20;;;;;;;7.12;82.87;102842.41;5076481;28;20063;-53
2022/01/22 09:55:48;;;;;;;5.53;2.10;;;;;;;7.21;82.97;102831.72;5076386;28;20052;-53
2022/01/22 09:58:17;;;;;;;9.05;2.00;;;;;;;7.28;82.44;102821.97;5077127;28;20053;-53
2022/01/22 10:00:45;;;;;;;9.85;2.03;;;;;;;7.38;81.82;102828.91;5076348;28;20059;-53
2022/01/22 10:03:20;;;;;;;5.72;2.33;;;;;;;7.42;81.95;102830.63;5076305;28;20057;-53
2022/01/22 10:05:48;;;;;;;4.55;1.77;;;;;;;7.50;81.36;102833.16;5076964;28;20052;-53
2022/01/22 10:08:24;;;;;;;15.70;3.08;;;;;;;7.55;81.01;102836.66;5076139;28;20053;-53
2022/01/22 10:10:53;;;;;;;8.57;2.10;;;;;;;7.59;80.14;102838.34;5077470;28;20061;-53
2022/01/22 10:13:38;;;;;;;7.05;3.05;;;;;;;7.66;79.90;102836.50;5076158;28;20507;-53
2022/01/22 10:16:20;;;;;;;8.73;2.92;;;;;;;7.76;80.19;102839.00;5076665;28;20146;-53
2022/01/22 10:19:08;;;;;;;8.40;2.25;;;;;;;7.94;78.33;102839.66;5076890;28;20113;-53
2022/01/22 10:21:38;;;;;;;9.85;2.10;;;;;;;8.04;78.11;102829.84;5076695;28;20056;-53
2022/01/22 10:24:29;;;;;;;7.90;2.10;;;;;;;8.05;76.81;102837.72;5075857;28;20057;-53
2022/01/22 10:27:26;;;;;;;9.00;1.83;;;;;;;8.18;75.09;102844.56;5075966;28;20407;-53
2022/01/22 10:29:57;;;;;;;4.13;1.85;;;;;;;8.18;74.73;102844.56;5075413;28;20063;-53
2022/01/22 10:32:36;;;;;;;7.57;2.13;;;;;;;8.29;74.80;102851.50;5075829;28;20061;-53
2022/01/22 10:35:09;;;;;;;10.52;3.38;;;;;;;8.48;74.69;102849.47;5075474;28;20071;-53
2022/01/22 10:37:38;;;;;;;8.05;2.47;;;;;;;8.59;73.15;102854.56;5075456;28;20504;-53
2022/01/22 10:40:21;;;;;;;10.38;2.08;;;;;;;8.67;72.14;102860.59;5076646;28;20068;-53
2022/01/22 10:42:50;;;;;;;5.78;2.22;;;;;;;8.83;72.89;102859.44;5076327;28;20063;-54
2022/01/22 10:45:26;;;;;;;5.70;2.03;;;;;;;8.98;72.18;102860.06;5075264;28;20057;-54
2022/01/22 10:48:15;;;;;;;8.30;2.22;;;;;;;9.06;70.48;102855.50;5075154;28;20052;-53
2022/01/22 10:50:45;;;;;;;10.27;2.30;;;;;;;9.07;70.93;102865.22;5075989;28;20063;-53
2022/01/22 10:53:13;;;;;;;8.98;1.40;;;;;;;8.98;69.80;102862.72;5076736;28;20072;-53
2022/01/22 10:56:01;;;;;;;10.45;2.35;;;;;;;8.84;69.89;102863.84;5075043;28;20499;-53
2022/01/22 10:58:30;;;;;;;5.15;1.80;;;;;;;8.76;71.13;102863.13;5075541;28;20060;-53
2022/01/22 11:01:03;;;;;;;8.30;1.75;;;;;;;8.86;71.71;102859.41;5075948;28;20067;-53
2022/01/22 11:03:31;;;;;;;11.48;2.08;;;;;;;8.93;70.87;102861.03;5074812;28;20056;-53
2022/01/22 11:06:06;;;;;;;5.50;2.10;;;;;;;8.88;70.81;102856.72;5075218;28;20052;-53
2022/01/22 11:08:34;;;;;;;7.10;2.08;;;;;;;8.93;71.56;102862.81;5075352;28;20060;-53
2022/01/22 11:11:03;;;;;;;8.23;2.50;;;;;;;8.92;71.56;102853.97;5075732;28;20059;-53
2022/01/22 11:13:31;;;;;;;8.80;4.10;;;;;;;8.98;71.21;102854.75;5075249;28;20049;-53
2022/01/22 11:15:59;;;;;;;9.27;2.67;;;;;;;8.90;71.06;102853.13;5074684;28;20053;-53
2022/01/22 11:18:27;;;;;;;12.38;2.58;;;;;;;8.89;71.80;102854.06;5075027;28;20057;-53
2022/01/22 11:20:56;;;;;;;8.23;1.73;;;;;;;8.89;71.27;102854.06;5074788;28;20058;-53
2022/01/22 11:23:26;;;;;;;6.93;1.88;;;;;;;8.91;71.62;102854.91;5075028;28;20052;-53
2022/01/22 11:25:54;;;;;;;7.43;2.50;;;;;;;8.93;71.26;102850.44;5074444;28;20056;-53
2022/01/22 11:28:22;;;;;;;5.07;1.70;;;;;;;9.00;71.87;102829.16;5074622;28;20520;-53
2022/01/22 11:30:51;;;;;;;9.77;2.00;;;;;;;9.14;71.91;102832.41;5074954;28;20052;-54
2022/01/22 11:33:21;;;;;;;9.50;2.03;;;;;;;9.29;71.03;102831.25;5074642;28;20435;-53
2022/01/22 11:36:03;;;;;;;4.47;1.50;;;;;;;9.26;69.88;102828.66;5074269;28;20067;-54
2022/01/22 11:38:37;;;;;;;6.07;1.48;;;;;;;9.18;69.70;102833.22;5073731;28;20052;-53
2022/01/22 11:41:08;;;;;;;8.88;1.95;;;;;;;9.08;69.32;102832.53;5075072;28;20057;-53
2022/01/22 11:44:14;;;;;;;9.70;1.63;;;;;;;9.04;70.25;102831.69;5074242;28;20052;-53
2022/01/22 11:46:46;;;;;;;4.18;1.30;;;;;;;9.08;69.50;102821.94;5074164;28;20064;-53
2022/01/22 11:49:21;;;;;;;9.10;1.38;;;;;;;9.11;69.89;102820.13;5075538;28;20048;-53
2022/01/22 11:51:51;;;;;;;10.20;1.90;;;;;;;9.17;70.10;102819.13;5074408;28;20064;-53
2022/01/22 11:54:23;;;;;;;8.20;1.60;;;;;;;9.13;68.24;102819.19;5074278;28;20060;-53
2022/01/22 11:56:53;;;;;;;7.75;1.70;;;;;;;9.03;68.56;102816.75;5074082;28;20060;-53
2022/01/22 11:59:31;;;;;;;8.00;1.45;;;;;;;9.03;69.61;102807.94;5074813;28;20523;-53
2022/01/22 12:02:07;;;;;;;6.72;1.65;;;;;;;9.21;69.55;102807.56;5074740;28;20064;-53
2022/01/22 12:04:50;;;;;;;5.30;1.67;;;;;;;9.29;68.94;102810.06;5075045;28;20060;-53
2022/01/22 12:07:21;;;;;;;10.10;2.20;;;;;;;9.52;68.05;102812.25;5074586;28;20064;-53
2022/01/22 12:10:20;;;;;;;8.93;1.80;;;;;;;9.71;67.43;102811.84;5073804;28;20139;-53
2022/01/22 12:15:54;;;;;;;5.28;1.45;;;;;;;9.89;65.36;102811.44;5073807;28;20057;-54
2022/01/22 12:18:31;;;;;;;9.25;1.83;;;;;;;9.81;64.65;102813.38;5073783;28;20053;-54
2022/01/22 12:23:50;;;;;;;7.30;2.50;;;;;;;9.62;65.88;102813.78;5073799;28;20059;-54
2022/01/22 12:26:49;;;;;;;8.23;1.85;;;;;;;9.52;65.50;102817.53;5073947;28;20550;-54
2022/01/22 12:29:36;;;;;;;7.85;1.73;;;;;;;9.50;65.95;102811.41;5073548;28;20066;-54
2022/01/22 12:32:35;;;;;;;7.25;1.83;;;;;;;9.25;65.34;102806.59;5074119;28;20056;-54
2022/01/22 12:35:09;;;;;;;9.40;1.60;;;;;;;8.89;66.59;102809.06;5074639;28;20060;-53
2022/01/22 12:37:44;;;;;;;12.95;2.10;;;;;;;8.98;67.21;102805.38;5074934;28;20064;-53
2022/01/22 12:40:14;;;;;;;6.15;1.58;;;;;;;9.18;66.99;102807.63;5073622;28;20057;-54
2022/01/22 12:43:01;;;;;;;6.50;1.58;;;;;;;9.23;66.07;102800.47;5074405;28;20056;-54
2022/01/22 12:45:29;;;;;;;9.70;1.73;;;;;;;9.19;66.36;102789.97;5073761;28;20063;-54
2022/01/22 12:47:58;;;;;;;7.50;1.70;;;;;;;9.21;67.26;102791.69;5073981;28;20071;-54
2022/01/22 12:50:29;;;;;;;6.45;1.73;;;;;;;9.32;67.34;102788.81;5077543;28;20057;-53
2022/01/22 12:53:02;;;;;;;4.68;1.80;;;;;;;9.46;67.08;102791.16;5077720;28;20052;-54
2022/01/22 12:58:27;;;;;;;9.57;1.92;;;;;;;9.54;65.49;102775.97;5077689;28;20393;-54
2022/01/22 13:01:09;;;;;;;9.13;1.80;;;;;;;9.35;65.98;102786.09;5077589;28;20057;-54
2022/01/22 13:03:38;;;;;;;;;;;;;;;9.29;67.22;102765.88;5078480;28;20404;-53